CLT TRACON Summary / KCLT TAF
CLT TRACON Summary:
Expect mostly clear skies with surface winds from the northwest at 3-5kts. Frost and related de-icing operations are expected between 06-14z this morning. Flight Hazards: Are not expected in the TRACON airspace.

Updated:11/28/2014 6:00 AM
CLT Terminal Aerodrome Forecast:

FTUS42 KGSP 281120
TAFCLT
TAF
KCLT 281120Z 2812/2912 33005KT P6SM SKC
     FM281900 24003KT P6SM FEW200
     FM291000 00000KT P6SM BKN200=
CLT TRACON Area Remark:
FROST AND RELATED DE-ICING OPERATIONS EXPECTED BETWEEN 06 TO 14Z.
Convective Gate Forecast / Collaborative Convective Forecast Product / Vertical Wind Profile
Convective Gate Forecast
-->
AIRMETs & SIGMETS/ Southeast Radar loop / Satellite Image (click on image to enlarge)

Southeast Radar Loop

 



USA.gov is the U.S. government's official web portal to all federal, state and local government web resources and services.